Time;durP1;ratioP1;P1;durP2;ratioP2;P2;SDS_P1;SDS_P2;PMS_P1;PMS_P2;Temp;Humidity;BMP_temperature;BMP_pressure;BME280_temperature;BME280_humidity;BME280_pressure;Samples;Min_cycle;Max_cycle;Signal;HPM_P1;HPM_P2
2021/12/08 00:01:08;;;;;;;3.97;1.50;;;;;;;18.79;35.97;99160.69;4974549;28;97995;-55
2021/12/08 00:03:34;;;;;;;4.10;1.50;;;;;;;18.76;36.28;99161.81;4974913;28;96901;-55
2021/12/08 00:06:00;;;;;;;3.72;1.30;;;;;;;18.77;36.21;99162.69;4960809;28;96988;-55
2021/12/08 00:08:29;;;;;;;4.20;1.50;;;;;;;18.73;36.36;99145.25;4966193;28;98601;-56
2021/12/08 00:13:25;;;;;;;3.78;1.40;;;;;;;18.68;36.36;99150.16;4973977;28;96947;-55
2021/12/08 00:15:54;;;;;;;2.67;1.25;;;;;;;18.67;36.49;99157.31;4974543;28;97758;-56
2021/12/08 00:18:25;;;;;;;3.22;1.42;;;;;;;18.63;36.62;99143.41;4968221;28;97750;-57
2021/12/08 00:20:55;;;;;;;4.22;1.13;;;;;;;18.61;36.50;99148.06;4973241;28;97576;-55
2021/12/08 00:23:23;;;;;;;3.90;1.30;;;;;;;18.55;36.75;99135.28;4969037;28;96927;-55
2021/12/08 00:25:49;;;;;;;3.60;1.33;;;;;;;18.52;36.68;99140.88;4975172;28;97019;-56
2021/12/08 00:28:17;;;;;;;2.88;1.48;;;;;;;18.51;36.75;99139.19;4970261;28;97607;-58
2021/12/08 00:30:50;;;;;;;3.95;1.40;;;;;;;18.49;36.80;99129.66;4970349;28;97581;-55
2021/12/08 00:33:18;;;;;;;2.72;1.23;;;;;;;18.45;36.81;99121.09;4963139;28;96828;-55
2021/12/08 00:35:47;;;;;;;4.25;1.55;;;;;;;18.44;36.83;99130.06;4964920;28;97514;-55
2021/12/08 00:38:13;;;;;;;2.53;1.20;;;;;;;18.43;36.75;99126.53;4974312;28;97156;-55
2021/12/08 00:40:39;;;;;;;3.25;1.35;;;;;;;18.39;36.94;99133.16;4971705;28;98819;-56
2021/12/08 00:43:06;;;;;;;2.80;1.38;;;;;;;18.38;36.91;99130.59;4982881;28;98501;-54
2021/12/08 00:45:34;;;;;;;3.17;1.45;;;;;;;18.36;36.97;99129.94;4971796;28;97171;-57
2021/12/08 00:48:02;;;;;;;3.60;1.25;;;;;;;18.34;36.97;99129.22;4967238;28;96914;-55
2021/12/08 00:50:33;;;;;;;3.60;1.50;;;;;;;18.36;36.86;99127.25;4972524;28;97839;-54
2021/12/08 00:52:59;;;;;;;3.20;1.38;;;;;;;18.33;37.03;99138.19;4961458;28;97446;-56
2021/12/08 00:55:27;;;;;;;2.80;1.40;;;;;;;18.30;37.05;99150.81;4968075;28;96967;-55
2021/12/08 00:57:53;;;;;;;2.88;1.27;;;;;;;18.29;37.10;99145.63;4976086;28;97000;-56
2021/12/08 01:00:28;;;;;;;2.55;1.20;;;;;;;18.27;37.31;99134.25;4976276;28;97027;-56
2021/12/08 01:02:54;;;;;;;3.67;1.40;;;;;;;18.25;37.33;99139.72;4975358;28;97870;-56
2021/12/08 01:05:27;;;;;;;3.40;1.30;;;;;;;18.23;37.31;99136.34;4974578;28;97420;-55
2021/12/08 01:07:53;;;;;;;3.10;1.30;;;;;;;18.23;37.30;99147.03;4966639;28;96926;-55
2021/12/08 01:10:27;;;;;;;3.13;1.33;;;;;;;18.21;37.42;99142.81;4966341;28;96931;-55
2021/12/08 01:12:54;;;;;;;3.38;1.40;;;;;;;18.19;37.56;99139.44;4973729;28;97747;-56
2021/12/08 01:15:24;;;;;;;4.30;1.80;;;;;;;18.16;37.51;99137.91;4974036;28;97563;-55
2021/12/08 01:17:49;;;;;;;1.92;1.13;;;;;;;18.14;37.29;99137.19;4975097;28;96898;-56
2021/12/08 01:20:16;;;;;;;4.22;1.45;;;;;;;18.15;37.42;99146.88;4971543;28;112045;-56
2021/12/08 01:22:44;;;;;;;2.92;1.23;;;;;;;18.11;37.54;99150.78;4967454;28;96955;-57
2021/12/08 01:25:11;;;;;;;2.92;1.25;;;;;;;18.09;37.73;99158.91;4972817;28;97938;-57
2021/12/08 01:27:37;;;;;;;3.13;1.25;;;;;;;18.08;37.63;99153.72;4975936;28;97464;-56
2021/12/08 01:30:06;;;;;;;2.55;1.42;;;;;;;18.06;37.63;99148.53;4971811;28;97095;-57
2021/12/08 01:32:33;;;;;;;2.55;1.13;;;;;;;18.06;37.49;99153.03;4967290;28;96984;-57
2021/12/08 01:34:58;;;;;;;3.95;1.38;;;;;;;18.03;37.64;99159.44;4963931;28;97681;-55
2021/12/08 01:37:25;;;;;;;1.95;1.00;;;;;;;18.03;37.71;99158.63;4976059;28;97858;-55
2021/12/08 01:39:51;;;;;;;3.00;1.20;;;;;;;18.02;37.67;99160.41;4965189;28;97138;-57
2021/12/08 01:42:25;;;;;;;3.38;1.23;;;;;;;17.99;37.90;99166.03;4967650;28;96874;-55
2021/12/08 01:47:36;;;;;;;2.92;1.33;;;;;;;17.97;37.93;99168.00;4965131;28;97743;-55
2021/12/08 01:50:03;;;;;;;2.40;1.20;;;;;;;17.95;37.92;99167.25;4975335;28;97499;-56
2021/12/08 01:52:28;;;;;;;3.60;1.10;;;;;;;17.92;37.98;99170.19;4969474;28;96992;-55
2021/12/08 01:54:55;;;;;;;2.80;1.30;;;;;;;17.92;38.06;99171.03;4976735;28;97124;-56
2021/12/08 01:57:21;;;;;;;3.05;1.17;;;;;;;17.91;37.95;99168.47;4978765;28;97675;-55
2021/12/08 01:59:47;;;;;;;1.90;1.17;;;;;;;17.89;37.97;99176.63;4978408;28;97714;-57
2021/12/08 02:02:14;;;;;;;2.85;1.20;;;;;;;17.88;38.13;99174.09;4976509;28;109487;-55
2021/12/08 02:04:41;;;;;;;2.00;1.08;;;;;;;17.88;38.07;99174.94;4979313;28;97028;-55
2021/12/08 02:07:07;;;;;;;2.15;1.00;;;;;;;17.87;38.03;99191.06;4967921;28;97044;-55
2021/12/08 02:09:33;;;;;;;2.28;1.15;;;;;;;17.86;38.17;99195.53;4979150;28;98789;-56
2021/12/08 02:11:59;;;;;;;2.55;1.05;;;;;;;17.87;38.18;99188.41;4993034;28;97477;-55
2021/12/08 02:14:24;;;;;;;2.85;1.20;;;;;;;17.86;38.25;99176.88;4979971;28;97056;-55
2021/12/08 02:16:55;;;;;;;2.22;0.90;;;;;;;17.84;38.35;99177.03;4975480;28;97041;-55
2021/12/08 02:19:22;;;;;;;1.83;1.00;;;;;;;17.83;38.21;99169.19;4979373;28;97758;-55
2021/12/08 02:21:52;;;;;;;1.98;1.00;;;;;;;17.80;38.36;99170.31;4959524;28;97421;-57
2021/12/08 02:24:21;;;;;;;2.40;0.93;;;;;;;17.78;38.52;99176.72;4967760;28;96943;-55
2021/12/08 02:26:50;;;;;;;2.90;1.10;;;;;;;17.77;38.48;99186.53;4966231;28;96958;-55
2021/12/08 02:29:32;;;;;;;1.92;1.02;;;;;;;17.78;38.48;99192.72;4966489;28;96977;-56
2021/12/08 02:32:10;;;;;;;3.78;1.00;;;;;;;17.77;38.48;99196.34;4978864;28;97983;-57
2021/12/08 02:48:35;;;;;;;1.98;0.90;;;;;;;17.70;38.74;99207.53;4972867;28;96980;-55
2021/12/08 02:51:01;;;;;;;2.30;1.13;;;;;;;17.70;38.71;99220.03;4976718;28;96863;-54
2021/12/08 02:53:26;;;;;;;2.10;1.00;;;;;;;17.66;38.87;99227.44;4964326;28;96842;-55
2021/12/08 02:55:52;;;;;;;1.50;0.90;;;;;;;17.66;38.94;99230.09;4971811;28;97916;-55
2021/12/08 02:58:18;;;;;;;1.20;0.73;;;;;;;17.66;38.95;99227.44;4973144;28;97633;-55
2021/12/08 03:00:57;;;;;;;2.20;0.75;;;;;;;17.66;38.88;99229.25;4977453;28;96861;-55
2021/12/08 03:03:22;;;;;;;1.83;0.80;;;;;;;17.66;38.91;99221.28;4963505;28;96963;-54
2021/12/08 03:05:48;;;;;;;2.40;0.90;;;;;;;17.65;39.02;99227.56;4963118;28;97683;-55
2021/12/08 03:08:13;;;;;;;2.10;0.90;;;;;;;17.63;39.09;99227.72;4968296;28;101055;-55
2021/12/08 03:10:45;;;;;;;1.65;0.80;;;;;;;17.63;39.16;99214.38;4966973;28;96836;-55
2021/12/08 03:13:12;;;;;;;2.97;0.70;;;;;;;17.61;39.08;99224.31;4967588;28;97070;-56
2021/12/08 03:15:40;;;;;;;1.52;0.80;;;;;;;17.59;39.33;99226.28;4975627;28;97159;-56
2021/12/08 03:18:06;;;;;;;1.65;0.75;;;;;;;17.60;39.25;99230.63;4967286;28;97716;-55
2021/12/08 03:20:40;;;;;;;1.65;0.73;;;;;;;17.58;39.24;99221.91;4971351;28;97578;-55
2021/12/08 03:23:11;;;;;;;2.00;0.95;;;;;;;17.59;39.24;99225.44;4980246;28;96966;-55
2021/12/08 03:25:40;;;;;;;2.20;0.95;;;;;;;17.58;39.24;99223.75;4966411;28;96980;-55
2021/12/08 03:28:16;;;;;;;2.22;0.90;;;;;;;17.55;39.29;99219.50;4978560;28;97907;-54
2021/12/08 03:30:56;;;;;;;1.92;0.70;;;;;;;17.54;39.53;99229.31;4965171;28;97502;-55
2021/12/08 03:33:23;;;;;;;1.55;0.75;;;;;;;17.56;39.26;99226.53;4976647;28;96966;-56
2021/12/08 03:35:49;;;;;;;1.10;0.70;;;;;;;17.55;39.47;99230.16;4972524;28;97110;-57
2021/12/08 03:38:18;;;;;;;1.55;0.80;;;;;;;17.54;39.32;99234.66;4968133;28;97025;-56
2021/12/08 03:40:46;;;;;;;1.23;0.63;;;;;;;17.54;39.62;99239.16;4973917;28;97924;-57
2021/12/08 03:43:13;;;;;;;1.50;0.68;;;;;;;17.54;39.43;99236.50;4977755;28;97550;-55
2021/12/08 03:45:47;;;;;;;1.25;0.60;;;;;;;17.52;39.48;99244.59;4977118;28;96913;-57
2021/12/08 03:48:46;;;;;;;1.60;0.70;;;;;;;17.51;39.63;99239.41;4968889;28;96939;-56
2021/12/08 03:51:12;;;;;;;1.48;0.80;;;;;;;17.50;39.63;99246.53;4977669;28;98086;-56
2021/12/08 03:53:39;;;;;;;1.73;0.88;;;;;;;17.48;39.76;99247.66;4977436;28;97637;-55
2021/12/08 03:56:05;;;;;;;1.55;0.73;;;;;;;17.47;39.69;99251.28;4965284;28;96990;-55
2021/12/08 03:58:30;;;;;;;1.60;0.70;;;;;;;17.47;39.85;99251.28;4966633;28;96844;-55
2021/12/08 04:00:58;;;;;;;1.38;0.77;;;;;;;17.46;39.75;99255.78;4977465;28;96823;-57
2021/12/08 04:03:29;;;;;;;2.00;0.70;;;;;;;17.45;39.74;99258.59;4976680;28;97812;-57
2021/12/08 04:05:58;;;;;;;1.40;0.70;;;;;;;17.44;39.71;99252.41;4975521;28;97503;-56
2021/12/08 04:08:34;;;;;;;1.55;0.75;;;;;;;17.43;39.88;99263.19;4980111;28;96799;-56
2021/12/08 04:11:05;;;;;;;1.70;0.90;;;;;;;17.43;39.84;99260.53;4976599;28;96940;-55
2021/12/08 04:14:03;;;;;;;1.30;0.75;;;;;;;17.41;39.99;99260.63;4974362;28;97962;-55
2021/12/08 04:16:39;;;;;;;2.55;0.75;;;;;;;17.39;40.02;99263.44;4968067;28;98638;-55
2021/12/08 04:19:07;;;;;;;1.73;0.73;;;;;;;17.39;39.93;99267.94;4975348;28;96954;-58
2021/12/08 04:21:35;;;;;;;1.33;0.70;;;;;;;17.39;39.96;99263.44;4977353;28;96931;-55
2021/12/08 04:24:02;;;;;;;1.10;0.68;;;;;;;17.38;40.03;99258.25;4968036;28;97042;-55
2021/12/08 04:26:36;;;;;;;0.90;0.70;;;;;;;17.38;40.09;99264.41;4969603;28;97831;-56
2021/12/08 04:29:07;;;;;;;1.10;0.63;;;;;;;17.39;40.10;99267.94;4978177;28;97689;-55
2021/12/08 04:31:38;;;;;;;1.92;0.80;;;;;;;17.37;39.92;99268.03;4971963;28;96915;-56
2021/12/08 04:34:12;;;;;;;1.42;0.63;;;;;;;17.36;40.06;99270.84;4974197;28;97050;-55
2021/12/08 04:36:46;;;;;;;1.52;0.80;;;;;;;17.35;40.13;99279.81;4973622;28;97406;-56
2021/12/08 04:39:48;;;;;;;2.55;0.77;;;;;;;17.35;40.18;99277.16;4964795;28;97769;-56
2021/12/08 04:42:19;;;;;;;1.00;0.70;;;;;;;17.33;40.07;99273.75;4967242;28;96833;-55
2021/12/08 04:44:55;;;;;;;3.50;0.60;;;;;;;17.31;40.35;99273.03;4976025;28;96906;-56
2021/12/08 05:01:19;;;;;;;1.65;0.90;;;;;;;17.23;40.30;99285.19;4970047;28;97727;-56
2021/12/08 05:04:35;;;;;;;2.20;0.68;;;;;;;17.21;40.51;99286.28;4972849;28;97470;-57
2021/12/08 05:09:43;;;;;;;0.95;0.50;;;;;;;17.21;40.30;99295.09;4964584;28;97024;-56
2021/12/08 05:12:16;;;;;;;1.00;0.60;;;;;;;17.21;40.41;99294.28;4975562;28;96924;-57
2021/12/08 05:15:00;;;;;;;1.58;0.60;;;;;;;17.21;40.52;99281.78;4976175;28;97902;-55
2021/12/08 05:17:46;;;;;;;1.70;0.63;;;;;;;17.24;40.53;99288.72;4978812;28;97499;-56
2021/12/08 05:20:45;;;;;;;1.13;0.60;;;;;;;17.29;40.55;99305.13;4969458;28;96894;-56
2021/12/08 05:23:28;;;;;;;1.77;0.80;;;;;;;17.34;40.48;99313.59;4962508;28;96876;-56
2021/12/08 05:25:54;;;;;;;1.05;0.60;;;;;;;17.39;40.34;99316.72;4965398;28;97681;-58
2021/12/08 05:28:24;;;;;;;1.40;0.60;;;;;;;17.45;40.37;99312.69;4972982;28;97482;-56
2021/12/08 05:31:05;;;;;;;1.77;0.70;;;;;;;17.51;40.26;99325.50;4979063;28;97114;-55
2021/12/08 05:33:31;;;;;;;1.05;0.43;;;;;;;17.56;40.13;99319.78;4970855;28;96974;-56
2021/12/08 05:35:57;;;;;;;1.27;0.70;;;;;;;17.60;40.20;99321.22;4972333;28;96967;-55
2021/12/08 05:38:24;;;;;;;1.88;0.70;;;;;;;17.64;40.12;99336.00;4966031;28;97764;-56
2021/12/08 05:41:00;;;;;;;1.02;0.70;;;;;;;17.66;40.19;99334.00;4971359;28;97617;-57
2021/12/08 05:43:25;;;;;;;2.70;0.63;;;;;;;17.70;40.15;99347.94;4986281;28;97121;-56
2021/12/08 05:45:53;;;;;;;1.17;0.60;;;;;;;17.72;40.15;99343.31;4970144;28;96895;-58
2021/12/08 05:48:20;;;;;;;1.65;0.70;;;;;;;17.74;40.35;99335.22;4956592;28;98023;-55
2021/12/08 05:51:07;;;;;;;1.15;0.60;;;;;;;17.76;40.14;99344.75;4962741;28;97466;-56
2021/12/08 05:53:36;;;;;;;1.88;0.52;;;;;;;17.77;40.23;99349.13;4976285;28;96998;-55
2021/12/08 05:56:05;;;;;;;1.75;0.70;;;;;;;17.78;40.41;99352.63;4978867;28;96895;-57
2021/12/08 05:58:32;;;;;;;2.17;0.80;;;;;;;17.80;40.14;99348.88;4979328;28;96964;-56
2021/12/08 06:01:12;;;;;;;1.65;0.60;;;;;;;17.84;40.01;99355.59;4972290;28;97912;-55
2021/12/08 06:03:41;;;;;;;1.83;0.60;;;;;;;17.86;40.01;99352.81;4967411;28;97009;-57
2021/12/08 06:06:08;;;;;;;1.60;0.60;;;;;;;17.88;40.34;99361.53;4991155;28;96956;-56
2021/12/08 06:08:35;;;;;;;2.60;0.70;;;;;;;17.94;40.33;99373.50;4974836;28;96887;-57
2021/12/08 06:11:05;;;;;;;3.95;0.90;;;;;;;17.96;40.29;99366.22;4973894;28;97925;-56
2021/12/08 06:13:31;;;;;;;3.55;0.77;;;;;;;17.97;40.36;99370.59;4963454;28;97623;-56
2021/12/08 06:15:56;;;;;;;5.15;0.80;;;;;;;17.98;40.18;99370.47;4959774;28;96812;-56
2021/12/08 06:18:25;;;;;;;6.28;0.80;;;;;;;18.00;40.28;99363.19;4956926;28;96839;-56
2021/12/08 06:20:58;;;;;;;3.25;0.70;;;;;;;18.03;40.63;99355.91;4971197;28;96881;-55
2021/12/08 06:23:23;;;;;;;2.88;0.95;;;;;;;18.06;40.88;99353.00;4976785;28;97944;-56
2021/12/08 06:25:49;;;;;;;4.60;1.05;;;;;;;18.07;41.44;99354.66;4975890;28;97501;-55
2021/12/08 06:28:15;;;;;;;5.10;0.88;;;;;;;18.11;41.78;99372.09;4974926;28;97124;-57
2021/12/08 06:30:46;;;;;;;10.07;1.33;;;;;;;18.18;42.09;99383.09;4975056;28;96813;-56
2021/12/08 06:33:14;;;;;;;6.65;1.17;;;;;;;18.19;41.64;99382.94;4977088;28;98725;-57
2021/12/08 06:35:46;;;;;;;9.57;1.40;;;;;;;18.19;42.23;99387.44;4971297;27;97590;-57
2021/12/08 06:38:14;;;;;;;5.97;1.00;;;;;;;18.18;42.31;99394.59;4971835;28;96963;-57
2021/12/08 06:40:53;;;;;;;8.57;1.30;;;;;;;18.18;42.24;99394.59;4969642;28;97028;-56
2021/12/08 06:43:24;;;;;;;6.68;1.27;;;;;;;18.19;42.02;99393.63;4977998;28;96889;-56
2021/12/08 06:45:55;;;;;;;6.53;1.30;;;;;;;18.22;41.57;99388.03;4979416;28;98796;-57
2021/12/08 06:48:29;;;;;;;3.92;1.10;;;;;;;18.21;41.77;99397.00;4977154;28;97031;-57
2021/12/08 06:51:10;;;;;;;7.50;1.30;;;;;;;18.23;41.76;99404.84;4976481;28;96924;-56
2021/12/08 06:53:37;;;;;;;6.95;1.25;;;;;;;18.22;41.59;99406.69;4978649;28;96941;-57
2021/12/08 06:56:33;;;;;;;4.90;1.40;;;;;;;18.20;41.57;99397.16;4978404;28;98689;-57
2021/12/08 06:59:07;;;;;;;5.50;1.20;;;;;;;18.19;41.69;99403.44;4959148;28;97461;-56
2021/12/08 07:04:34;;;;;;;6.68;1.27;;;;;;;18.17;41.80;99408.91;4978303;28;96889;-56
2021/12/08 07:07:15;;;;;;;8.20;1.45;;;;;;;18.16;41.61;99397.41;4977677;28;96733;-57
2021/12/08 07:09:55;;;;;;;8.55;1.33;;;;;;;18.18;41.51;99405.25;4981806;28;98172;-56
2021/12/08 07:12:27;;;;;;;10.80;1.30;;;;;;;18.23;41.59;99408.38;4964390;28;96846;-56
2021/12/08 07:15:06;;;;;;;9.43;1.23;;;;;;;18.23;41.29;99405.72;4958999;28;96977;-56
2021/12/08 07:17:36;;;;;;;6.63;1.08;;;;;;;18.24;41.67;99417.22;4959848;28;96837;-57
2021/12/08 07:20:18;;;;;;;5.10;1.25;;;;;;;18.22;41.38;99424.50;4958887;28;97545;-56
2021/12/08 07:22:51;;;;;;;4.65;1.40;;;;;;;18.20;41.35;99426.47;4959694;28;97764;-55
2021/12/08 07:25:23;;;;;;;6.30;1.23;;;;;;;18.18;41.49;99429.25;4959025;28;96927;-56
2021/12/08 07:27:51;;;;;;;3.80;1.13;;;;;;;18.18;41.39;99436.44;4972916;28;96825;-56
2021/12/08 07:30:25;;;;;;;4.82;0.98;;;;;;;18.15;41.53;99441.03;4958299;28;96820;-55
2021/12/08 07:32:51;;;;;;;3.55;1.00;;;;;;;18.15;41.47;99451.69;4962252;28;97592;-56
2021/12/08 07:35:31;;;;;;;3.53;1.13;;;;;;;18.13;41.30;99456.31;4958433;28;96882;-56
2021/12/08 07:37:58;;;;;;;5.68;1.35;;;;;;;18.13;41.30;99460.81;4958956;28;97031;-56
2021/12/08 07:40:39;;;;;;;5.65;1.50;;;;;;;18.14;41.16;99454.50;4972886;28;97048;-57
2021/12/08 07:43:14;;;;;;;4.13;0.93;;;;;;;18.14;41.24;99457.19;4978525;28;97669;-55
2021/12/08 07:46:02;;;;;;;4.18;1.20;;;;;;;18.12;41.11;99443.94;4978330;28;97660;-55
2021/12/08 07:48:35;;;;;;;3.60;1.02;;;;;;;18.15;41.07;99458.88;4978343;28;96835;-57
2021/12/08 07:51:15;;;;;;;5.35;1.13;;;;;;;18.13;41.04;99464.31;4977595;28;97114;-56
2021/12/08 07:53:42;;;;;;;5.97;1.10;;;;;;;18.13;41.05;99455.47;4978249;28;96811;-56
2021/12/08 07:56:12;;;;;;;4.28;1.10;;;;;;;18.11;40.93;99452.94;4973556;28;97514;-56
2021/12/08 07:58:42;;;;;;;3.72;0.95;;;;;;;18.11;41.09;99457.44;4977573;28;97120;-56
2021/12/08 08:01:14;;;;;;;3.25;1.00;;;;;;;18.10;40.80;99459.25;4976500;28;97016;-56
2021/12/08 08:03:41;;;;;;;5.35;1.50;;;;;;;18.10;40.97;99467.25;4977762;28;96792;-56
2021/12/08 08:06:16;;;;;;;4.50;1.08;;;;;;;18.12;40.85;99472.44;4977688;28;96788;-56
2021/12/08 08:08:42;;;;;;;4.35;1.00;;;;;;;18.12;40.79;99467.94;4977716;28;97667;-57
2021/12/08 08:11:20;;;;;;;7.47;1.08;;;;;;;18.13;40.78;99464.31;4976583;28;96889;-56
2021/12/08 08:13:47;;;;;;;5.78;1.27;;;;;;;18.13;40.70;99453.66;4978180;28;96891;-56
2021/12/08 08:16:18;;;;;;;3.75;0.88;;;;;;;18.16;40.75;99468.56;4977728;28;96856;-58
2021/12/08 08:18:55;;;;;;;3.60;0.95;;;;;;;18.17;40.62;99475.56;4980346;28;98902;-57
2021/12/08 08:21:28;;;;;;;5.43;1.08;;;;;;;18.17;40.92;99491.56;4976876;28;97262;-57
2021/12/08 08:23:56;;;;;;;4.03;1.00;;;;;;;18.18;40.97;99500.44;4978115;28;96805;-57
2021/12/08 08:26:23;;;;;;;3.13;0.80;;;;;;;18.17;40.82;99504.91;4968099;28;96777;-57
2021/12/08 08:28:52;;;;;;;2.45;0.90;;;;;;;18.17;40.83;99496.91;4958112;28;97717;-57
2021/12/08 08:31:48;;;;;;;3.92;1.00;;;;;;;18.16;40.87;99496.06;4958293;28;97643;-57
2021/12/08 08:34:15;;;;;;;3.10;1.00;;;;;;;18.16;40.70;99490.75;4958322;28;96927;-58
2021/12/08 08:36:45;;;;;;;1.65;0.85;;;;;;;18.15;40.78;99489.03;4957846;28;96827;-56
2021/12/08 08:39:28;;;;;;;1.90;0.70;;;;;;;18.18;40.71;99487.09;4961763;28;96820;-57
2021/12/08 08:42:05;;;;;;;3.20;1.00;;;;;;;18.20;40.62;99496.66;4970438;28;97631;-58
2021/12/08 08:44:43;;;;;;;2.97;0.88;;;;;;;18.23;40.79;99495.53;4977094;28;96834;-56
2021/12/08 08:47:17;;;;;;;5.90;0.80;;;;;;;18.24;40.52;99507.91;4976832;28;96918;-57
2021/12/08 08:49:44;;;;;;;3.90;1.10;;;;;;;18.24;40.68;99497.25;4977509;28;96863;-57
2021/12/08 08:52:27;;;;;;;3.60;0.77;;;;;;;18.25;40.60;99496.28;4978193;28;97686;-57
2021/12/08 08:54:57;;;;;;;3.72;1.23;;;;;;;18.24;40.65;99498.09;4976594;28;97574;-57
2021/12/08 08:57:30;;;;;;;3.25;0.88;;;;;;;18.24;40.57;99507.91;4977611;28;96899;-57
2021/12/08 09:00:18;;;;;;;4.07;0.82;;;;;;;18.24;40.59;99510.56;4977301;28;96831;-56
2021/12/08 09:02:45;;;;;;;3.80;0.80;;;;;;;18.22;40.52;99505.38;4995628;28;96826;-56
2021/12/08 09:05:19;;;;;;;4.05;1.00;;;;;;;18.23;40.66;99511.53;4959012;28;97774;-57
2021/12/08 09:07:51;;;;;;;2.03;0.70;;;;;;;18.21;40.57;99503.69;4972423;28;96926;-56
2021/12/08 09:10:32;;;;;;;3.67;0.98;;;;;;;18.22;40.49;99509.84;4964321;28;96999;-56
2021/12/08 09:13:08;;;;;;;2.15;0.80;;;;;;;18.20;40.39;99518.00;4971520;28;96841;-56
2021/12/08 09:15:40;;;;;;;2.97;0.95;;;;;;;18.21;40.40;99513.53;4967625;28;97071;-57
2021/12/08 09:18:17;;;;;;;3.05;0.90;;;;;;;18.20;40.47;99502.00;4957358;28;97294;-56
2021/12/08 09:20:58;;;;;;;3.60;0.90;;;;;;;18.23;40.56;99498.22;4957684;28;96913;-56
2021/12/08 09:23:51;;;;;;;3.90;1.05;;;;;;;18.25;40.52;99491.78;4957254;28;96930;-57
2021/12/08 09:26:21;;;;;;;4.28;1.25;;;;;;;18.24;40.71;99500.78;4958601;28;96906;-56
2021/12/08 09:28:59;;;;;;;2.22;0.75;;;;;;;18.27;40.68;99505.00;4974747;28;97704;-57
2021/12/08 09:31:44;;;;;;;3.58;0.77;;;;;;;18.30;40.82;99521.59;4970625;28;97128;-57
2021/12/08 09:34:20;;;;;;;1.83;0.70;;;;;;;18.33;40.76;99511.63;4957987;28;96897;-57
2021/12/08 09:36:52;;;;;;;2.00;0.63;;;;;;;18.35;40.65;99515.84;4962580;28;96881;-57
2021/12/08 09:39:40;;;;;;;2.00;0.68;;;;;;;18.37;40.63;99511.25;4971780;28;97875;-56
2021/12/08 09:42:26;;;;;;;4.65;0.80;;;;;;;18.40;40.75;99523.47;4970148;28;97439;-56
2021/12/08 09:44:59;;;;;;;3.45;0.85;;;;;;;18.43;40.77;99518.72;4971785;28;97087;-58
2021/12/08 09:47:29;;;;;;;6.72;2.03;;;;;;;18.45;40.58;99521.28;4965801;28;96934;-57
2021/12/08 09:50:00;;;;;;;3.10;0.90;;;;;;;18.51;40.72;99530.59;4977247;28;97020;-58
2021/12/08 09:52:28;;;;;;;4.82;0.90;;;;;;;18.59;40.55;99541.47;4975652;28;98519;-57
2021/12/08 09:55:00;;;;;;;3.10;0.88;;;;;;;18.70;40.26;99536.06;4975098;28;96949;-57
2021/12/08 09:57:29;;;;;;;4.20;1.00;;;;;;;18.80;40.33;99521.91;4976516;28;96906;-57
2021/12/08 09:59:55;;;;;;;2.55;0.70;;;;;;;18.86;40.12;99514.22;4976525;28;96842;-57
2021/12/08 10:02:32;;;;;;;4.38;1.60;;;;;;;19.01;39.88;99528.13;4976698;28;97470;-57
2021/12/08 10:05:15;;;;;;;4.57;1.98;;;;;;;19.20;39.38;99515.81;4956621;28;97418;-57
2021/12/08 10:07:43;;;;;;;3.63;1.65;;;;;;;19.38;39.32;99513.38;4956807;28;96858;-57
2021/12/08 10:10:14;;;;;;;4.10;1.70;;;;;;;19.49;39.28;99504.38;4966552;28;96816;-57
2021/12/08 10:12:41;;;;;;;3.10;1.60;;;;;;;19.52;39.32;99501.44;4979879;28;96796;-57
2021/12/08 10:15:12;;;;;;;4.65;2.40;;;;;;;19.55;39.54;99496.66;4957575;28;97759;-56
2021/12/08 10:17:38;;;;;;;6.32;2.65;;;;;;;19.58;39.82;99492.88;4960002;28;97043;-57
2021/12/08 10:20:24;;;;;;;7.82;3.13;;;;;;;19.61;40.24;99492.59;4959477;28;113982;-57
2021/12/08 10:23:19;;;;;;;13.45;4.15;;;;;;;19.64;40.59;99494.13;4981023;28;97357;-57
2021/12/08 10:26:02;;;;;;;15.25;4.70;;;;;;;19.68;40.93;99493.72;4960101;28;97869;-57
2021/12/08 10:28:39;;;;;;;18.53;5.63;;;;;;;19.82;41.22;99480.94;4959627;28;98614;-57
2021/12/08 10:31:14;;;;;;;20.38;5.28;;;;;;;20.13;41.03;99481.69;4965056;28;96970;-57
2021/12/08 10:36:49;;;;;;;12.82;4.50;;;;;;;20.41;39.91;99483.63;4965504;28;96680;-57
2021/12/08 10:39:23;;;;;;;11.40;4.00;;;;;;;20.46;39.59;99492.91;4959580;28;97555;-57
2021/12/08 10:42:06;;;;;;;12.85;3.60;;;;;;;20.47;39.44;99505.31;4959963;28;96808;-57
2021/12/08 10:45:09;;;;;;;11.60;3.83;;;;;;;20.48;39.56;99501.66;4960323;28;96915;-57
2021/12/08 10:47:39;;;;;;;12.05;3.67;;;;;;;20.49;39.30;99502.47;4960903;28;96860;-56
2021/12/08 10:55:57;;;;;;;15.40;3.22;;;;;;;20.52;39.01;99502.22;4959410;28;96932;-57
2021/12/08 10:58:29;;;;;;;9.18;3.13;;;;;;;20.58;39.03;99504.28;4962743;28;96810;-58
2021/12/08 11:00:58;;;;;;;9.93;3.10;;;;;;;20.64;38.86;99500.19;4975021;28;97619;-57
2021/12/08 11:03:28;;;;;;;12.35;2.92;;;;;;;20.70;38.56;99499.63;4959522;28;97602;-57
2021/12/08 11:06:01;;;;;;;10.75;3.25;;;;;;;20.81;38.90;99498.66;4959315;28;96994;-57
2021/12/08 11:08:36;;;;;;;9.93;3.35;;;;;;;20.91;38.47;99506.63;4964293;28;97029;-57
2021/12/08 11:11:11;;;;;;;10.48;3.10;;;;;;;20.98;38.33;99515.78;4979309;28;97001;-57
2021/12/08 11:13:41;;;;;;;11.43;3.50;;;;;;;21.06;38.10;99521.25;4978052;28;97677;-57
2021/12/08 11:16:43;;;;;;;7.78;2.80;;;;;;;21.15;37.73;99519.53;4978485;28;97872;-57
2021/12/08 11:19:22;;;;;;;7.38;2.78;;;;;;;21.23;37.66;99525.00;4966481;28;96889;-57
2021/12/08 11:21:57;;;;;;;8.07;2.70;;;;;;;21.30;37.43;99517.22;4965036;28;96863;-56
2021/12/08 11:24:35;;;;;;;8.02;2.42;;;;;;;21.31;37.22;99520.72;4975876;28;97638;-57
2021/12/08 11:27:06;;;;;;;6.78;2.80;;;;;;;21.29;37.25;99520.88;4976500;28;97608;-57
2021/12/08 11:29:39;;;;;;;8.48;2.97;;;;;;;21.30;37.36;99533.31;4977912;28;97137;-57
2021/12/08 11:32:08;;;;;;;5.77;2.17;;;;;;;21.32;37.28;99530.47;4965404;28;97028;-57
2021/12/08 11:34:40;;;;;;;6.45;2.45;;;;;;;21.33;37.02;99537.50;4974497;28;96882;-57
2021/12/08 11:37:32;;;;;;;7.40;2.30;;;;;;;21.40;37.17;99535.91;4977976;28;97607;-58
2021/12/08 11:40:01;;;;;;;6.20;2.35;;;;;;;21.52;36.87;99545.47;4977118;28;97648;-58
2021/12/08 11:42:33;;;;;;;5.75;2.20;;;;;;;21.61;36.49;99543.75;4977638;28;97277;-57
2021/12/08 11:45:11;;;;;;;7.50;2.10;;;;;;;21.67;36.20;99551.19;4980918;28;96743;-57
2021/12/08 11:47:37;;;;;;;5.10;2.13;;;;;;;21.67;36.38;99545.84;4976077;28;97913;-57
2021/12/08 11:50:14;;;;;;;5.75;1.92;;;;;;;21.69;36.11;99546.53;4966810;28;97681;-58
2021/12/08 11:52:40;;;;;;;7.00;2.30;;;;;;;21.71;36.51;99554.41;4977402;28;96985;-57
2021/12/08 11:55:17;;;;;;;7.40;2.15;;;;;;;21.72;36.18;99551.56;4977590;28;97123;-57
2021/12/08 11:57:53;;;;;;;5.07;1.80;;;;;;;21.73;35.93;99557.78;4972991;28;97009;-57
2021/12/08 12:00:33;;;;;;;5.65;1.85;;;;;;;21.77;35.86;99563.69;4974808;28;98303;-57
2021/12/08 12:03:10;;;;;;;6.63;2.00;;;;;;;21.81;36.11;99559.75;4957922;28;98519;-57
2021/12/08 12:05:44;;;;;;;5.20;2.10;;;;;;;21.88;35.67;99550.09;4969692;28;97661;-58
2021/12/08 12:08:14;;;;;;;4.85;2.55;;;;;;;22.00;35.66;99556.06;4980116;28;96849;-57
2021/12/08 12:10:47;;;;;;;6.00;2.90;;;;;;;22.05;35.05;99561.84;4977722;28;98793;-57
2021/12/08 12:13:13;;;;;;;5.93;3.10;;;;;;;22.12;35.12;99554.84;4977608;28;97576;-58
2021/12/08 12:15:49;;;;;;;7.22;3.00;;;;;;;22.19;34.97;99557.78;4969879;28;113037;-56
2021/12/08 12:18:19;;;;;;;8.10;3.40;;;;;;;22.24;35.21;99566.19;4976280;28;97002;-58
2021/12/08 12:20:52;;;;;;;7.57;2.97;;;;;;;22.26;35.04;99572.25;4977218;28;97022;-57
2021/12/08 12:23:51;;;;;;;5.03;2.75;;;;;;;22.32;34.75;99581.53;4977281;28;98924;-57
2021/12/08 12:26:26;;;;;;;6.15;2.53;;;;;;;22.33;34.73;99588.59;4957382;28;98701;-57
2021/12/08 12:29:36;;;;;;;6.03;2.38;;;;;;;22.32;34.55;99593.13;4957445;28;96933;-58
2021/12/08 12:32:19;;;;;;;5.35;2.60;;;;;;;22.37;34.86;99598.03;4974565;28;96716;-57
2021/12/08 12:34:45;;;;;;;4.35;2.50;;;;;;;22.42;34.87;99597.63;4976164;28;98767;-57
2021/12/08 12:37:16;;;;;;;6.40;2.67;;;;;;;22.41;34.82;99602.13;4976697;28;97617;-57
2021/12/08 12:39:52;;;;;;;4.03;2.20;;;;;;;22.42;34.68;99609.19;4975434;28;107548;-57
2021/12/08 12:42:20;;;;;;;5.25;2.30;;;;;;;22.42;34.61;99614.56;4958826;28;97090;-59
2021/12/08 12:45:08;;;;;;;4.95;2.25;;;;;;;22.44;34.60;99604.50;4972386;28;96900;-57